This is the latest recevied weather packets stored in our database for station/object KF6YUA. If no packets are shown the sender has not sent any weather packets the latest 10 day(s).
| Time | Temp. | Humidity | Pressure | Rain* | Wind** | Luminosity | Snow |
|---|---|---|---|---|---|---|---|
| 1778006321 | 16.67° C | 77% | 1018.1 hPa | 0 mm | - | 268 W/m² | - |
| 1778006018 | 17.22° C | 77% | 1017.9 hPa | 0 mm | - | 345 W/m² | - |
| 1778005714 | 17.22° C | 76% | 1018 hPa | 0 mm | - | 294 W/m² | - |
| 1778005411 | 16.67° C | 76% | 1018.2 hPa | 0 mm | - | 395 W/m² | - |
| 1778005108 | 16.67° C | 78% | 1018.1 hPa | 0 mm | - | 372 W/m² | - |
| 1778004805 | 16.11° C | 78% | 1017.8 hPa | 0 mm | - | 322 W/m² | - |
| 1778004502 | 16.11° C | 80% | 1018.1 hPa | 0 mm | - | 377 W/m² | - |
| 1778004198 | 16.67° C | 80% | 1017.9 hPa | 0 mm | - | 290 W/m² | - |
| 1778003895 | 16.11° C | 80% | 1017.9 hPa | 0 mm | - | 296 W/m² | - |
| 1778003591 | 15.56° C | 77% | 1017.7 hPa | 0 mm | - | 261 W/m² | - |
| 1778003288 | 15.56° C | 78% | 1017.9 hPa | 0 mm | - | 218 W/m² | - |
| 1778002986 | 15.56° C | 77% | 1017.6 hPa | 0 mm | - | 191 W/m² | - |
| 1778002681 | 15.56° C | 77% | 1017.5 hPa | 0 mm | - | 196 W/m² | - |
| 1778002378 | 15.56° C | 78% | 1017.5 hPa | 0 mm | - | 202 W/m² | - |
| 1778002075 | 15.56° C | 79% | 1017.6 hPa | 0 mm | - | 217 W/m² | - |
| 1778001772 | 15° C | 78% | 1017.5 hPa | 0 mm | - | 212 W/m² | - |
| 1778001467 | 15° C | 79% | 1017.6 hPa | 0 mm | - | 180 W/m² | - |
| 1778001164 | 15° C | 81% | 1017.7 hPa | 0 mm | - | 158 W/m² | - |
| 1778000861 | 15° C | 81% | 1017.5 hPa | 0 mm | - | 141 W/m² | - |
| 1778000558 | 15° C | 80% | 1017.7 hPa | 0 mm | - | 169 W/m² | - |
| 1778000253 | 15° C | 81% | 1017.7 hPa | 0 mm | - | 161 W/m² | - |
| 1777999949 | 15° C | 80% | 1017.6 hPa | 0 mm | - | 172 W/m² | - |
| 1777999645 | 15° C | 81% | 1017.8 hPa | 0 mm | - | 150 W/m² | - |
| 1777999342 | 15° C | 79% | 1017.5 hPa | 0 mm | - | 153 W/m² | - |
| 1777999040 | 15° C | 79% | 1017.5 hPa | 0 mm | - | 223 W/m² | - |
* Rain latest hour (hover to see other rain measurements)
** Current wind speed in m/s (hover to see current wind gust speed)